Terminal Aerodrome Forecast
Issued by NWS

Home | Current Version | Previous Version | Text Only | Print | Product List | Glossary On
Versions: 1 2 3 4 5 6 7 8 9 10 11 12 13 14 15 16
000
FTUS43 KILX 311100
TAFDEC
TAF
KDEC 311120Z 3112/0112 21008KT P6SM BKN090
     FM311500 22010KT P6SM BKN050
     FM311900 20009KT 6SM -RA BR OVC025
     FM010400 15008KT 2SM -RASN BR OVC007
     FM010800 13011KT 2SM -SN BR OVC007=

USA.gov is the U.S. government's official web portal to all federal, state and local government web resources and services.